createdAt,value
2022-12-19T00:00:07.647Z,81.01
2022-12-19T00:02:39.499Z,81.18
2022-12-19T00:05:06.967Z,81.15
2022-12-19T00:07:33.839Z,81.25
2022-12-19T00:10:00.614Z,80.96
2022-12-19T00:12:27.499Z,80.97
2022-12-19T00:14:54.400Z,80.93
2022-12-19T00:17:21.937Z,81.08
2022-12-19T00:19:48.843Z,81.00
2022-12-19T00:22:15.526Z,81.06
2022-12-19T00:24:42.238Z,80.86
2022-12-19T00:27:08.915Z,81.29
2022-12-19T00:29:35.709Z,81.27
2022-12-19T00:32:03.426Z,81.17
2022-12-19T00:34:30.221Z,80.98
2022-12-19T00:36:56.929Z,81.11
2022-12-19T00:39:23.687Z,81.17
2022-12-19T00:41:50.388Z,81.40
2022-12-19T00:44:17.177Z,81.47
2022-12-19T00:46:50.262Z,81.55
2022-12-19T00:49:19.801Z,81.31
2022-12-19T00:51:46.927Z,81.36
2022-12-19T00:54:13.754Z,81.43
2022-12-19T00:56:41.788Z,81.43
2022-12-19T00:59:10.744Z,81.51
2022-12-19T01:01:41.621Z,81.33
2022-12-19T01:04:30.740Z,81.32
2022-12-19T01:07:02.375Z,81.47
2022-12-19T01:09:35.166Z,81.37
2022-12-19T01:12:23.129Z,81.33
2022-12-19T01:14:54.325Z,81.04
2022-12-19T01:17:23.926Z,81.05
2022-12-19T01:19:52.882Z,81.08
2022-12-19T01:22:19.595Z,81.03
2022-12-19T01:24:46.312Z,81.29
2022-12-19T01:27:15.307Z,80.98
2022-12-19T01:29:49.093Z,81.08
2022-12-19T01:32:20.429Z,80.86
2022-12-19T01:34:47.135Z,80.92
2022-12-19T01:37:14.027Z,81.01
2022-12-19T01:39:44.876Z,80.89
2022-12-19T01:42:22.346Z,80.72
2022-12-19T01:45:05.652Z,80.72
2022-12-19T01:47:36.281Z,80.63
2022-12-19T01:50:03.852Z,80.67
2022-12-19T01:52:30.633Z,80.65
2022-12-19T01:55:01.339Z,80.54
2022-12-19T01:57:28.016Z,80.58
2022-12-19T01:59:59.377Z,80.48
2022-12-19T02:02:33.293Z,80.58
2022-12-19T02:05:01.745Z,80.42
2022-12-19T02:07:28.573Z,80.46
2022-12-19T02:09:56.977Z,80.44
2022-12-19T02:12:32.998Z,80.26
2022-12-19T02:15:03.042Z,80.36
2022-12-19T02:17:57.835Z,80.17
2022-12-19T02:20:25.109Z,80.35
2022-12-19T02:23:00.970Z,80.22
2022-12-19T02:25:52.009Z,79.90
2022-12-19T02:28:45.728Z,79.87
2022-12-19T02:31:25.865Z,79.94
2022-12-19T02:34:03.322Z,79.70
2022-12-19T02:36:43.592Z,79.59
2022-12-19T02:39:20.723Z,79.83
2022-12-19T02:41:53.378Z,79.67
2022-12-19T02:44:26.748Z,79.49
2022-12-19T02:46:54.773Z,79.35
2022-12-19T02:49:30.679Z,79.30
2022-12-19T02:52:08.345Z,79.13
2022-12-19T02:54:35.103Z,79.20
2022-12-19T02:57:16.249Z,79.29
2022-12-19T03:00:03.060Z,79.29
2022-12-19T03:03:01.183Z,79.06
2022-12-19T03:05:40.410Z,78.98
2022-12-19T03:08:19.252Z,78.96
2022-12-19T03:10:55.464Z,78.99
2022-12-19T03:13:30.369Z,79.04
2022-12-19T03:15:58.896Z,78.97
2022-12-19T03:18:26.500Z,79.20
2022-12-19T03:21:07.005Z,79.18
2022-12-19T03:23:34.141Z,79.37
2022-12-19T03:26:18.625Z,79.00
2022-12-19T03:28:54.214Z,79.11
2022-12-19T03:31:24.870Z,79.23
2022-12-19T03:33:56.857Z,79.24
2022-12-19T03:36:32.950Z,79.15
2022-12-19T03:39:04.268Z,79.46
2022-12-19T03:41:49.938Z,78.98
2022-12-19T03:44:19.245Z,79.18
2022-12-19T03:46:51.903Z,79.12
2022-12-19T03:49:18.721Z,78.92
2022-12-19T03:52:03.475Z,78.94
2022-12-19T03:54:44.501Z,79.02
2022-12-19T03:57:30.758Z,79.05
2022-12-19T04:00:06.295Z,79.38
2022-12-19T04:02:42.723Z,79.49
2022-12-19T04:05:13.049Z,79.48
2022-12-19T04:07:41.216Z,79.45
2022-12-19T04:10:12.024Z,79.48
2022-12-19T04:12:42.977Z,79.23
2022-12-19T04:15:10.250Z,80.00
2022-12-19T04:17:45.006Z,79.97
2022-12-19T04:20:15.628Z,80.17
2022-12-19T04:22:49.806Z,80.04
2022-12-19T04:25:20.098Z,80.25
2022-12-19T04:27:52.280Z,80.61
2022-12-19T04:30:19.800Z,80.73
2022-12-19T04:32:47.822Z,80.79
2022-12-19T04:35:14.873Z,80.46
2022-12-19T04:37:42.053Z,80.56
2022-12-19T04:40:11.022Z,80.67
2022-12-19T04:42:37.777Z,81.09
2022-12-19T04:45:06.017Z,81.06
2022-12-19T04:47:32.914Z,80.85
2022-12-19T04:49:59.675Z,80.85
2022-12-19T04:52:26.578Z,81.13
2022-12-19T04:54:53.218Z,81.00
2022-12-19T04:57:19.963Z,81.30
2022-12-19T04:59:46.700Z,81.14
2022-12-19T05:02:13.545Z,80.98
2022-12-19T05:04:40.286Z,81.08
2022-12-19T05:07:07.015Z,81.09
2022-12-19T05:09:34.140Z,81.15
2022-12-19T05:12:00.867Z,81.38
2022-12-19T05:14:27.850Z,81.60
2022-12-19T05:17:00.367Z,81.08
2022-12-19T05:19:28.145Z,80.91
2022-12-19T05:21:54.975Z,80.96
2022-12-19T05:24:22.184Z,80.84
2022-12-19T05:26:49.772Z,81.15
2022-12-19T05:29:17.304Z,80.97
2022-12-19T05:31:44.291Z,80.87
2022-12-19T05:34:11.190Z,81.13
2022-12-19T05:36:38.043Z,81.25
2022-12-19T05:39:04.819Z,81.11
2022-12-19T05:41:31.544Z,81.47
2022-12-19T05:43:58.258Z,81.26
2022-12-19T05:46:25.654Z,81.12
2022-12-19T05:49:11.105Z,81.06
2022-12-19T05:51:57.043Z,80.93
2022-12-19T05:54:24.497Z,81.00
2022-12-19T05:56:51.167Z,81.11
2022-12-19T05:59:17.976Z,81.25
2022-12-19T06:01:44.833Z,81.39
2022-12-19T06:04:11.584Z,81.11
2022-12-19T06:06:38.276Z,81.26
2022-12-19T06:09:05.079Z,81.34
2022-12-19T06:11:31.783Z,81.37
2022-12-19T06:13:58.548Z,81.39
2022-12-19T06:16:26.396Z,81.46
2022-12-19T06:18:53.155Z,81.35
2022-12-19T06:21:21.902Z,81.52
2022-12-19T06:23:49.153Z,81.49
2022-12-19T06:26:20.300Z,81.55
2022-12-19T06:28:52.201Z,81.44
2022-12-19T06:31:20.926Z,81.47
2022-12-19T06:33:48.019Z,81.30
2022-12-19T06:36:19.343Z,81.20
2022-12-19T06:38:46.551Z,81.26
2022-12-19T06:41:32.650Z,81.34
2022-12-19T06:44:00.628Z,81.52
2022-12-19T06:46:27.674Z,81.66
2022-12-19T06:48:54.668Z,81.84
2022-12-19T06:51:21.739Z,81.50
2022-12-19T06:53:48.830Z,81.66
2022-12-19T06:56:16.507Z,81.82
2022-12-19T06:58:43.285Z,81.66
2022-12-19T07:01:45.490Z,81.68
2022-12-19T07:04:16.541Z,81.78
2022-12-19T07:06:48.723Z,81.75
2022-12-19T07:09:15.930Z,81.88
2022-12-19T07:11:42.595Z,81.72
2022-12-19T07:14:09.352Z,81.85
2022-12-19T07:16:37.955Z,81.81
2022-12-19T07:19:06.075Z,81.61
2022-12-19T07:21:36.083Z,81.67
2022-12-19T07:24:03.911Z,81.83
2022-12-19T07:26:30.795Z,81.67
2022-12-19T07:28:58.929Z,81.95
2022-12-19T07:31:25.696Z,81.98
2022-12-19T07:33:52.412Z,81.80
2022-12-19T07:36:19.090Z,81.75
2022-12-19T07:38:45.851Z,81.90
2022-12-19T07:41:12.603Z,82.15
2022-12-19T07:43:39.881Z,82.00
2022-12-19T07:46:06.585Z,82.04
2022-12-19T07:48:33.350Z,82.04
2022-12-19T07:51:00.117Z,82.09
2022-12-19T07:53:27.969Z,82.19
2022-12-19T07:55:54.737Z,82.00
2022-12-19T07:58:21.560Z,82.11
2022-12-19T08:01:00.976Z,82.26
2022-12-19T08:03:28.637Z,82.23
2022-12-19T08:06:06.869Z,82.33
2022-12-19T08:08:37.870Z,82.21
2022-12-19T08:11:13.291Z,82.16
2022-12-19T08:13:46.261Z,82.08
2022-12-19T08:16:14.059Z,82.02
2022-12-19T08:18:40.743Z,82.09
2022-12-19T08:21:09.009Z,82.14
2022-12-19T08:23:35.866Z,82.11
2022-12-19T08:26:06.870Z,82.04
2022-12-19T08:28:35.563Z,82.53
2022-12-19T08:31:15.747Z,82.56
2022-12-19T08:33:43.574Z,82.58
2022-12-19T08:36:13.187Z,82.55
2022-12-19T08:38:40.537Z,82.62
2022-12-19T08:41:07.798Z,82.81
2022-12-19T08:43:34.949Z,82.70
2022-12-19T08:46:02.268Z,83.09
2022-12-19T08:48:29.113Z,83.07
2022-12-19T08:50:58.355Z,83.08
2022-12-19T08:53:27.527Z,83.39
2022-12-19T08:55:59.345Z,83.54
2022-12-19T08:58:28.812Z,83.36
2022-12-19T09:01:05.192Z,83.68
2022-12-19T09:03:54.611Z,83.54
2022-12-19T09:06:20.256Z,83.78
2022-12-19T09:08:47.438Z,83.78
2022-12-19T09:11:16.731Z,83.91
2022-12-19T09:13:45.000Z,84.00
2022-12-19T09:16:17.931Z,84.05
2022-12-19T09:18:48.642Z,84.01
2022-12-19T09:21:16.693Z,83.99
2022-12-19T09:23:47.532Z,84.16
2022-12-19T09:26:15.399Z,84.21
2022-12-19T09:28:42.421Z,84.24
2022-12-19T09:31:12.615Z,84.07
2022-12-19T09:33:43.594Z,84.13
2022-12-19T09:36:23.128Z,84.09
2022-12-19T09:38:51.024Z,84.24
2022-12-19T09:41:49.605Z,84.18
2022-12-19T09:44:45.699Z,84.04
2022-12-19T09:47:19.877Z,84.29
2022-12-19T09:49:48.347Z,84.38
2022-12-19T09:52:21.647Z,84.70
2022-12-19T09:55:17.482Z,84.44
2022-12-19T09:57:59.058Z,84.53
2022-12-19T10:00:33.881Z,84.54
2022-12-19T10:03:07.856Z,84.58
2022-12-19T10:06:35.732Z,84.88
2022-12-19T10:08:45.384Z,84.77
2022-12-19T10:12:42.162Z,84.65
2022-12-19T10:14:52.386Z,84.81
2022-12-19T10:17:30.351Z,84.75
2022-12-19T10:19:56.992Z,84.53
2022-12-19T10:22:30.466Z,84.68
2022-12-19T10:25:34.089Z,84.62
2022-12-19T10:28:09.462Z,84.45
2022-12-19T10:30:44.865Z,84.25
2022-12-19T10:33:29.985Z,84.26
2022-12-19T10:36:01.969Z,84.44
2022-12-19T10:38:36.055Z,84.23
2022-12-19T10:41:30.395Z,84.34
2022-12-19T10:44:07.318Z,84.42
2022-12-19T10:46:46.298Z,84.50
2022-12-19T10:49:18.718Z,84.34
2022-12-19T10:51:56.118Z,84.48
2022-12-19T10:54:27.585Z,84.51
2022-12-19T10:57:23.823Z,84.38
2022-12-19T11:00:16.251Z,84.44
2022-12-19T11:02:47.316Z,84.35
2022-12-19T11:08:49.192Z,84.52
2022-12-19T11:14:15.197Z,84.50
2022-12-19T11:19:21.789Z,84.81
2022-12-19T11:21:28.369Z,84.87
2022-12-19T11:29:36.396Z,84.87
2022-12-19T11:29:54.949Z,84.58
2022-12-19T11:30:09.321Z,84.77
2022-12-19T11:30:49.025Z,84.58
2022-12-19T11:34:28.873Z,84.26
2022-12-19T11:37:17.492Z,84.42
2022-12-19T11:39:58.387Z,84.34
2022-12-19T11:42:37.641Z,84.41
2022-12-19T11:45:35.131Z,84.24
2022-12-19T11:48:10.586Z,84.26
2022-12-19T11:50:55.771Z,84.17
2022-12-19T11:53:29.255Z,84.33
2022-12-19T11:56:03.642Z,84.21
2022-12-19T11:58:30.303Z,84.37
2022-12-19T12:01:06.072Z,84.22
2022-12-19T12:04:10.092Z,84.09
2022-12-19T12:06:57.594Z,84.12
2022-12-19T12:13:16.079Z,84.14
2022-12-19T12:21:55.167Z,84.04
2022-12-19T12:31:18.381Z,83.86
2022-12-19T12:31:26.255Z,84.15
2022-12-19T12:31:27.851Z,83.80
2022-12-19T12:31:44.955Z,83.77
2022-12-19T12:31:47.729Z,83.67
2022-12-19T12:35:43.566Z,83.69
2022-12-19T12:38:28.454Z,83.73
2022-12-19T12:41:18.858Z,83.71
2022-12-19T12:43:57.637Z,83.70
2022-12-19T12:46:28.657Z,83.64
2022-12-19T12:49:06.423Z,83.42
2022-12-19T12:51:34.857Z,83.40
2022-12-19T12:54:12.131Z,83.45
2022-12-19T12:56:40.251Z,83.41
2022-12-19T12:59:21.221Z,83.54
2022-12-19T13:01:55.665Z,83.37
2022-12-19T13:04:30.415Z,83.33
2022-12-19T13:07:28.915Z,83.29
2022-12-19T13:10:15.267Z,83.37
2022-12-19T13:13:14.514Z,83.17
2022-12-19T13:15:44.390Z,83.17
2022-12-19T13:18:31.366Z,82.96
2022-12-19T13:20:59.490Z,83.03
2022-12-19T13:23:29.208Z,83.08
2022-12-19T13:25:56.574Z,83.18
2022-12-19T13:28:23.195Z,83.00
2022-12-19T13:31:19.607Z,83.07
2022-12-19T13:33:55.954Z,82.96
2022-12-19T13:39:26.270Z,82.96
2022-12-19T13:40:12.187Z,82.79
2022-12-19T13:43:14.328Z,82.96
2022-12-19T13:45:54.908Z,83.02
2022-12-19T13:48:56.804Z,83.15
2022-12-19T13:51:23.507Z,83.05
2022-12-19T13:53:59.606Z,83.08
2022-12-19T13:56:30.974Z,82.95
2022-12-19T13:59:01.281Z,82.92
2022-12-19T14:01:33.561Z,83.03
2022-12-19T14:04:08.197Z,83.18
2022-12-19T14:06:44.689Z,83.00
2022-12-19T14:11:26.544Z,83.04
2022-12-19T14:14:00.504Z,82.99
2022-12-19T14:15:32.796Z,83.01
2022-12-19T14:18:29.984Z,83.01
2022-12-19T14:22:05.553Z,82.79
2022-12-19T14:23:42.938Z,82.89
2022-12-19T14:28:20.448Z,82.81
2022-12-19T14:29:12.339Z,82.85
2022-12-19T14:31:58.336Z,82.99
2022-12-19T14:36:08.487Z,83.08
2022-12-19T14:38:03.871Z,82.92
2022-12-19T14:40:29.139Z,82.86
2022-12-19T14:43:59.668Z,83.00
2022-12-19T14:53:08.509Z,82.71
2022-12-19T14:54:20.627Z,82.64
2022-12-19T14:54:30.697Z,82.66
2022-12-19T14:56:00.471Z,82.70
2022-12-19T14:58:54.513Z,82.53
2022-12-19T15:01:09.182Z,82.71
2022-12-19T15:04:33.836Z,82.64
2022-12-19T15:07:09.670Z,82.57
2022-12-19T15:11:02.372Z,82.63
2022-12-19T15:14:03.904Z,82.53
2022-12-19T15:15:54.736Z,82.48
2022-12-19T15:18:33.664Z,82.50
2022-12-19T15:21:05.658Z,82.65
2022-12-19T15:23:32.838Z,82.53
2022-12-19T15:26:11.343Z,82.53
2022-12-19T15:28:50.204Z,82.47
2022-12-19T15:31:33.073Z,82.56
2022-12-19T15:36:48.425Z,82.48
2022-12-19T15:39:15.600Z,82.42
2022-12-19T15:41:43.017Z,82.56
2022-12-19T15:44:24.678Z,82.64
2022-12-19T15:46:51.469Z,82.68
2022-12-19T15:49:20.456Z,82.69
2022-12-19T15:51:47.610Z,82.65
2022-12-19T15:54:47.279Z,82.61
2022-12-19T15:57:01.731Z,82.56
2022-12-19T15:59:38.152Z,82.60
2022-12-19T16:02:21.943Z,82.47
2022-12-19T16:04:50.730Z,82.30
2022-12-19T16:07:23.105Z,82.22
2022-12-19T16:09:50.310Z,82.26
2022-12-19T16:12:20.655Z,82.14
2022-12-19T16:14:54.625Z,81.91
2022-12-19T16:17:24.485Z,81.91
2022-12-19T16:19:51.707Z,82.01
2022-12-19T16:22:26.623Z,81.73
2022-12-19T16:24:54.279Z,81.71
2022-12-19T16:27:27.804Z,81.80
2022-12-19T16:29:55.634Z,81.69
2022-12-19T16:32:24.498Z,81.79
2022-12-19T16:34:52.943Z,81.65
2022-12-19T16:37:19.954Z,81.64
2022-12-19T16:39:46.694Z,81.74
2022-12-19T16:42:16.809Z,81.56
2022-12-19T16:44:48.013Z,81.72
2022-12-19T16:47:17.679Z,81.76
2022-12-19T16:49:44.989Z,81.72
2022-12-19T16:52:12.314Z,81.56
2022-12-19T16:54:39.709Z,81.52
2022-12-19T16:57:15.861Z,81.38
2022-12-19T16:59:42.596Z,81.54
2022-12-19T17:02:21.355Z,81.28
2022-12-19T17:04:53.794Z,81.61
2022-12-19T17:07:20.772Z,81.88
2022-12-19T17:09:47.420Z,81.75
2022-12-19T17:12:18.353Z,81.71
2022-12-19T17:14:45.281Z,81.86
2022-12-19T17:17:14.751Z,81.61
2022-12-19T17:19:45.346Z,81.33
2022-12-19T17:22:14.018Z,81.35
2022-12-19T17:24:40.882Z,81.35
2022-12-19T17:27:07.739Z,81.37
2022-12-19T17:29:34.410Z,81.35
2022-12-19T17:32:01.954Z,81.37
2022-12-19T17:34:32.117Z,81.50
2022-12-19T17:37:00.584Z,81.63
2022-12-19T17:39:29.611Z,81.47
2022-12-19T17:41:59.590Z,81.50
2022-12-19T17:44:26.724Z,81.46
2022-12-19T17:46:53.686Z,81.37
2022-12-19T17:49:31.595Z,81.29
2022-12-19T17:51:59.848Z,81.35
2022-12-19T17:54:27.425Z,81.49
2022-12-19T17:56:54.182Z,81.41
2022-12-19T17:59:21.154Z,81.42
2022-12-19T18:01:48.261Z,81.54
2022-12-19T18:04:18.618Z,81.55
2022-12-19T18:06:46.560Z,81.83
2022-12-19T18:09:24.807Z,81.89
2022-12-19T18:11:52.722Z,81.83
2022-12-19T18:14:20.543Z,82.00
2022-12-19T18:16:50.403Z,82.34
2022-12-19T18:19:24.715Z,82.13
2022-12-19T18:21:51.966Z,82.45
2022-12-19T18:24:18.737Z,82.39
2022-12-19T18:26:45.597Z,82.32
2022-12-19T18:29:12.841Z,82.41
2022-12-19T18:31:46.279Z,82.68
2022-12-19T18:34:24.297Z,82.61
2022-12-19T18:36:52.184Z,82.81
2022-12-19T18:39:24.256Z,82.74
2022-12-19T18:41:52.060Z,82.61
2022-12-19T18:44:19.166Z,82.65
2022-12-19T18:46:48.565Z,82.73
2022-12-19T18:49:16.997Z,82.64
2022-12-19T18:51:44.978Z,82.62
2022-12-19T18:54:21.947Z,82.77
2022-12-19T18:56:48.872Z,82.67
2022-12-19T18:59:15.684Z,82.81
2022-12-19T19:01:46.716Z,82.79
2022-12-19T19:04:18.257Z,82.86
2022-12-19T19:06:51.021Z,82.77
2022-12-19T19:09:20.193Z,82.94
2022-12-19T19:11:47.402Z,82.61
2022-12-19T19:14:14.662Z,82.63
2022-12-19T19:16:41.676Z,82.80
2022-12-19T19:19:14.287Z,83.03
2022-12-19T19:21:41.778Z,82.76
2022-12-19T19:24:17.116Z,83.19
2022-12-19T19:26:44.175Z,82.88
2022-12-19T19:29:13.576Z,82.87
2022-12-19T19:31:44.726Z,82.75
2022-12-19T19:34:22.999Z,83.03
2022-12-19T19:36:54.899Z,83.00
2022-12-19T19:39:23.056Z,82.64
2022-12-19T19:41:50.134Z,82.93
2022-12-19T19:44:17.110Z,82.74
2022-12-19T19:46:43.876Z,82.96
2022-12-19T19:49:10.722Z,83.03
2022-12-19T19:51:37.515Z,82.66
2022-12-19T19:54:04.817Z,82.43
2022-12-19T19:56:32.544Z,82.52
2022-12-19T19:59:00.856Z,82.45
2022-12-19T20:01:28.013Z,82.31
2022-12-19T20:03:54.948Z,82.34
2022-12-19T20:06:22.129Z,82.26
2022-12-19T20:08:49.673Z,82.44
2022-12-19T20:11:17.512Z,82.29
2022-12-19T20:13:44.346Z,82.13
2022-12-19T20:16:16.145Z,82.35
2022-12-19T20:18:48.032Z,82.28
2022-12-19T20:21:15.235Z,82.39
2022-12-19T20:23:43.474Z,82.42
2022-12-19T20:26:12.435Z,82.35
2022-12-19T20:28:47.830Z,82.17
2022-12-19T20:31:17.757Z,82.37
2022-12-19T20:33:46.397Z,82.39
2022-12-19T20:36:13.932Z,82.31
2022-12-19T20:38:40.850Z,82.48
2022-12-19T20:41:08.194Z,82.41
2022-12-19T20:43:37.524Z,82.37
2022-12-19T20:46:07.827Z,82.33
2022-12-19T20:48:34.977Z,82.50
2022-12-19T20:51:02.608Z,82.61
2022-12-19T20:53:29.473Z,82.43
2022-12-19T20:56:00.004Z,82.38
2022-12-19T20:58:28.659Z,82.29
2022-12-19T21:00:56.867Z,82.38
2022-12-19T21:03:29.329Z,82.40
2022-12-19T21:05:57.044Z,82.34
2022-12-19T21:08:25.621Z,81.95
2022-12-19T21:10:54.318Z,82.47
2022-12-19T21:13:22.890Z,82.40
2022-12-19T21:15:58.874Z,82.13
2022-12-19T21:18:26.570Z,82.30
2022-12-19T21:20:53.750Z,82.38
2022-12-19T21:23:20.967Z,82.40
2022-12-19T21:25:48.098Z,82.46
2022-12-19T21:28:15.413Z,82.52
2022-12-19T21:30:42.289Z,82.81
2022-12-19T21:33:09.877Z,82.77
2022-12-19T21:35:38.036Z,82.80
2022-12-19T21:38:04.844Z,82.74
2022-12-19T21:40:31.539Z,82.66
2022-12-19T21:42:58.568Z,82.80
2022-12-19T21:45:25.507Z,82.44
2022-12-19T21:47:52.253Z,82.57
2022-12-19T21:50:19.002Z,82.49
2022-12-19T21:52:46.752Z,82.51
2022-12-19T21:55:15.952Z,82.93
2022-12-19T21:57:42.734Z,83.27
2022-12-19T22:00:12.231Z,83.89
2022-12-19T22:02:43.580Z,83.85
2022-12-19T22:05:17.571Z,83.68
2022-12-19T22:07:44.381Z,83.62
2022-12-19T22:10:11.395Z,83.45
2022-12-19T22:12:38.190Z,83.47
2022-12-19T22:15:05.300Z,83.36
2022-12-19T22:17:32.014Z,83.32
2022-12-19T22:19:58.730Z,83.32
2022-12-19T22:22:25.423Z,83.32
2022-12-19T22:24:52.177Z,83.38
2022-12-19T22:27:19.754Z,83.32
2022-12-19T22:29:46.556Z,83.41
2022-12-19T22:32:13.564Z,83.59
2022-12-19T22:34:40.298Z,84.00
2022-12-19T22:37:07.043Z,83.80
2022-12-19T22:39:34.072Z,83.86
2022-12-19T22:42:01.002Z,83.88
2022-12-19T22:44:28.249Z,84.10
2022-12-19T22:46:55.389Z,83.89
2022-12-19T22:49:22.177Z,84.11
2022-12-19T22:51:49.520Z,84.17
2022-12-19T22:54:16.347Z,84.02
2022-12-19T22:56:43.272Z,84.20
2022-12-19T22:59:12.026Z,84.19
2022-12-19T23:01:41.663Z,84.07
2022-12-19T23:04:11.572Z,84.30
2022-12-19T23:06:39.241Z,84.14
2022-12-19T23:09:08.525Z,83.89
2022-12-19T23:11:38.892Z,84.06
2022-12-19T23:14:08.120Z,83.84
2022-12-19T23:16:35.335Z,83.94
2022-12-19T23:19:02.789Z,83.64
2022-12-19T23:21:29.801Z,83.57
2022-12-19T23:23:56.991Z,83.35
2022-12-19T23:26:29.743Z,83.35
2022-12-19T23:29:02.292Z,83.36
2022-12-19T23:31:30.037Z,83.37
2022-12-19T23:33:57.934Z,83.45
2022-12-19T23:37:00.349Z,83.63
2022-12-19T23:39:12.859Z,83.54
2022-12-19T23:41:40.362Z,83.34
2022-12-19T23:44:08.746Z,83.31
2022-12-19T23:46:35.988Z,83.39
2022-12-19T23:49:03.273Z,83.11
2022-12-19T23:51:30.543Z,83.20
2022-12-19T23:53:57.798Z,83.36
2022-12-19T23:56:27.692Z,83.26
2022-12-19T23:58:55.274Z,83.01
